Missoula International Airport Missoula US
ICAO: KMSO
IATA: MSO
Category: Medium
Scheduled Services: Yes

Elevation: 3206 ft
TransAlt. 18000 ft.

Airport Communications:
SPOKANE APP/DEP:124.9
ATIS:126.65
CTAF:118.4
GND:121.9
GREAT FALLS RDO:122.45
TWR:118.4
UNICOM:122.95

KMSO Zoom In..

If Map Doesn't Load, Click Here

Runways:

(A) RW 07 length 4612 ft width 75 ft
---- / hdg 72

(B) RW 11 length 9501 ft width 150 ft
ILS 109.30 / hdg 113

(C) RW 25 length 4612 ft width 75 ft
---- / hdg 252

(D) RW 29 length 9501 ft width 150 ft
---- / hdg 293

Location; KMSO
Day. 24 / Time. 04.53 Zulu
* Altimeter: 30.04
* Temperature: 09° c. 48.2°f.
* Wind from: 340° Speed 04 kn.
Dewpoint: 01° c.
Visibility: 10 Statute Miles.
Clouds: Clear (automated report).

KMSO 240453Z AUTO 34004KT 10SM CLR 09/01 A3004 RMK AO2 SLP174 T00940006 $


Wind From 340°
Speed 04 kn.

 
 
jpsmedia.com for Web Design worldairports.se 2018   terms of use